sensor_id;sensor_type;location;lat;lon;timestamp;temperature;humidity
25918;DHT22;13899;51.174;4.456;2023-07-24T00:00:29;18.40;99.90
25918;DHT22;13899;51.174;4.456;2023-07-24T00:02:55;18.50;99.90
25918;DHT22;13899;51.174;4.456;2023-07-24T00:05:21;18.40;99.90
25918;DHT22;13899;51.174;4.456;2023-07-24T00:07:47;18.40;99.90
25918;DHT22;13899;51.174;4.456;2023-07-24T00:10:12;18.40;99.90
25918;DHT22;13899;51.174;4.456;2023-07-24T00:12:38;18.70;99.90
25918;DHT22;13899;51.174;4.456;2023-07-24T00:15:04;18.80;99.90
25918;DHT22;13899;51.174;4.456;2023-07-24T00:17:30;18.80;99.90
25918;DHT22;13899;51.174;4.456;2023-07-24T00:19:55;18.70;99.90
25918;DHT22;13899;51.174;4.456;2023-07-24T00:22:21;18.50;99.90
25918;DHT22;13899;51.174;4.456;2023-07-24T00:24:47;18.50;99.90
25918;DHT22;13899;51.174;4.456;2023-07-24T00:27:12;18.30;99.90
25918;DHT22;13899;51.174;4.456;2023-07-24T00:29:39;18.50;99.90
25918;DHT22;13899;51.174;4.456;2023-07-24T00:32:05;18.60;99.90
25918;DHT22;13899;51.174;4.456;2023-07-24T00:34:31;18.50;99.90
25918;DHT22;13899;51.174;4.456;2023-07-24T00:36:56;18.40;99.90
25918;DHT22;13899;51.174;4.456;2023-07-24T00:39:22;18.50;99.90
25918;DHT22;13899;51.174;4.456;2023-07-24T00:41:52;18.40;99.90
25918;DHT22;13899;51.174;4.456;2023-07-24T00:44:22;18.20;99.90
25918;DHT22;13899;51.174;4.456;2023-07-24T00:46:50;18.00;99.90
25918;DHT22;13899;51.174;4.456;2023-07-24T00:49:17;17.90;99.90
25918;DHT22;13899;51.174;4.456;2023-07-24T00:51:43;17.80;99.90
25918;DHT22;13899;51.174;4.456;2023-07-24T00:54:11;17.70;99.90
25918;DHT22;13899;51.174;4.456;2023-07-24T00:56:37;17.80;99.90
25918;DHT22;13899;51.174;4.456;2023-07-24T00:59:03;17.70;99.90
25918;DHT22;13899;51.174;4.456;2023-07-24T01:01:29;17.70;99.90
25918;DHT22;13899;51.174;4.456;2023-07-24T01:03:56;17.70;99.90
25918;DHT22;13899;51.174;4.456;2023-07-24T01:06:22;17.90;99.90
25918;DHT22;13899;51.174;4.456;2023-07-24T01:08:48;18.00;99.90
25918;DHT22;13899;51.174;4.456;2023-07-24T01:11:19;17.80;99.90
25918;DHT22;13899;51.174;4.456;2023-07-24T01:16:41;18.20;99.90
25918;DHT22;13899;51.174;4.456;2023-07-24T01:19:41;18.10;99.90
25918;DHT22;13899;51.174;4.456;2023-07-24T01:27:31;17.80;99.90
25918;DHT22;13899;51.174;4.456;2023-07-24T01:29:57;18.20;99.90
25918;DHT22;13899;51.174;4.456;2023-07-24T01:32:23;18.10;99.90
25918;DHT22;13899;51.174;4.456;2023-07-24T01:34:49;18.30;99.90
25918;DHT22;13899;51.174;4.456;2023-07-24T01:37:16;18.20;99.90
25918;DHT22;13899;51.174;4.456;2023-07-24T01:39:44;18.40;99.90
25918;DHT22;13899;51.174;4.456;2023-07-24T01:42:10;18.70;99.90
25918;DHT22;13899;51.174;4.456;2023-07-24T01:44:37;18.90;99.90
25918;DHT22;13899;51.174;4.456;2023-07-24T01:47:02;18.70;99.90
25918;DHT22;13899;51.174;4.456;2023-07-24T01:49:28;18.80;99.90
25918;DHT22;13899;51.174;4.456;2023-07-24T01:51:54;19.10;99.90
25918;DHT22;13899;51.174;4.456;2023-07-24T01:54:19;19.00;99.90
25918;DHT22;13899;51.174;4.456;2023-07-24T01:56:45;19.20;99.90
25918;DHT22;13899;51.174;4.456;2023-07-24T01:59:10;19.00;99.90
25918;DHT22;13899;51.174;4.456;2023-07-24T02:01:36;19.00;99.90
25918;DHT22;13899;51.174;4.456;2023-07-24T02:04:02;19.00;99.90
25918;DHT22;13899;51.174;4.456;2023-07-24T02:06:27;19.10;99.90
25918;DHT22;13899;51.174;4.456;2023-07-24T02:08:53;18.60;99.90
25918;DHT22;13899;51.174;4.456;2023-07-24T02:11:18;18.50;99.90
25918;DHT22;13899;51.174;4.456;2023-07-24T02:13:44;18.60;99.90
25918;DHT22;13899;51.174;4.456;2023-07-24T02:16:11;18.60;99.90
25918;DHT22;13899;51.174;4.456;2023-07-24T02:18:38;18.70;99.90
25918;DHT22;13899;51.174;4.456;2023-07-24T02:21:04;18.60;99.90
25918;DHT22;13899;51.174;4.456;2023-07-24T02:23:29;18.40;99.90
25918;DHT22;13899;51.174;4.456;2023-07-24T02:25:55;18.30;99.90
25918;DHT22;13899;51.174;4.456;2023-07-24T02:28:20;18.00;99.90
25918;DHT22;13899;51.174;4.456;2023-07-24T02:30:47;17.90;99.90
25918;DHT22;13899;51.174;4.456;2023-07-24T02:33:13;17.80;99.90
25918;DHT22;13899;51.174;4.456;2023-07-24T02:35:39;17.80;99.90
25918;DHT22;13899;51.174;4.456;2023-07-24T02:38:05;17.80;99.90
25918;DHT22;13899;51.174;4.456;2023-07-24T02:40:31;17.90;99.90
25918;DHT22;13899;51.174;4.456;2023-07-24T02:42:56;17.70;99.90
25918;DHT22;13899;51.174;4.456;2023-07-24T02:45:22;17.80;99.90
25918;DHT22;13899;51.174;4.456;2023-07-24T02:47:48;17.90;99.90
25918;DHT22;13899;51.174;4.456;2023-07-24T02:50:14;18.10;99.90
25918;DHT22;13899;51.174;4.456;2023-07-24T02:52:39;18.40;99.90
25918;DHT22;13899;51.174;4.456;2023-07-24T02:55:05;18.80;99.90
25918;DHT22;13899;51.174;4.456;2023-07-24T02:57:31;18.90;99.90
25918;DHT22;13899;51.174;4.456;2023-07-24T02:59:57;18.90;99.90
25918;DHT22;13899;51.174;4.456;2023-07-24T03:02:22;18.80;99.90
25918;DHT22;13899;51.174;4.456;2023-07-24T03:04:48;18.90;99.90
25918;DHT22;13899;51.174;4.456;2023-07-24T03:07:14;19.10;99.90
25918;DHT22;13899;51.174;4.456;2023-07-24T03:09:39;19.10;99.90
25918;DHT22;13899;51.174;4.456;2023-07-24T03:12:05;19.40;99.90
25918;DHT22;13899;51.174;4.456;2023-07-24T03:14:31;19.40;99.90
25918;DHT22;13899;51.174;4.456;2023-07-24T03:16:57;19.40;99.90
25918;DHT22;13899;51.174;4.456;2023-07-24T03:19:22;19.10;99.90
25918;DHT22;13899;51.174;4.456;2023-07-24T03:21:48;18.60;99.90
25918;DHT22;13899;51.174;4.456;2023-07-24T03:24:13;18.80;99.90
25918;DHT22;13899;51.174;4.456;2023-07-24T03:26:39;18.80;99.90
25918;DHT22;13899;51.174;4.456;2023-07-24T03:29:05;18.20;99.90
25918;DHT22;13899;51.174;4.456;2023-07-24T03:31:31;17.80;99.90
25918;DHT22;13899;51.174;4.456;2023-07-24T03:33:57;17.40;99.90
25918;DHT22;13899;51.174;4.456;2023-07-24T03:36:22;17.40;99.90
25918;DHT22;13899;51.174;4.456;2023-07-24T03:38:48;17.50;99.90
25918;DHT22;13899;51.174;4.456;2023-07-24T03:41:13;17.50;99.90
25918;DHT22;13899;51.174;4.456;2023-07-24T03:43:39;17.40;99.90
25918;DHT22;13899;51.174;4.456;2023-07-24T03:46:05;17.40;99.90
25918;DHT22;13899;51.174;4.456;2023-07-24T03:48:30;17.20;99.90
25918;DHT22;13899;51.174;4.456;2023-07-24T03:50:59;17.20;99.90
25918;DHT22;13899;51.174;4.456;2023-07-24T03:53:26;17.40;99.90
25918;DHT22;13899;51.174;4.456;2023-07-24T03:55:52;17.40;99.90
25918;DHT22;13899;51.174;4.456;2023-07-24T03:58:17;17.70;99.90
25918;DHT22;13899;51.174;4.456;2023-07-24T04:00:43;17.60;99.90
25918;DHT22;13899;51.174;4.456;2023-07-24T04:03:09;17.80;99.90
25918;DHT22;13899;51.174;4.456;2023-07-24T04:05:35;17.80;99.90
25918;DHT22;13899;51.174;4.456;2023-07-24T04:08:02;17.90;99.90
25918;DHT22;13899;51.174;4.456;2023-07-24T04:10:28;17.90;99.90
25918;DHT22;13899;51.174;4.456;2023-07-24T04:12:55;18.00;99.90
25918;DHT22;13899;51.174;4.456;2023-07-24T04:15:22;18.10;99.90
25918;DHT22;13899;51.174;4.456;2023-07-24T04:17:47;18.40;99.90
25918;DHT22;13899;51.174;4.456;2023-07-24T04:20:13;18.40;99.90
25918;DHT22;13899;51.174;4.456;2023-07-24T04:22:39;18.50;99.90
25918;DHT22;13899;51.174;4.456;2023-07-24T04:25:05;18.10;99.90
25918;DHT22;13899;51.174;4.456;2023-07-24T04:27:31;17.70;99.90
25918;DHT22;13899;51.174;4.456;2023-07-24T04:29:56;17.80;99.90
25918;DHT22;13899;51.174;4.456;2023-07-24T04:32:22;17.40;99.90
25918;DHT22;13899;51.174;4.456;2023-07-24T04:34:47;17.40;99.90
25918;DHT22;13899;51.174;4.456;2023-07-24T04:37:13;17.70;99.90
25918;DHT22;13899;51.174;4.456;2023-07-24T04:39:39;17.60;99.90
25918;DHT22;13899;51.174;4.456;2023-07-24T04:42:05;17.30;99.90
25918;DHT22;13899;51.174;4.456;2023-07-24T04:44:31;17.40;99.90
25918;DHT22;13899;51.174;4.456;2023-07-24T04:46:57;17.10;99.90
25918;DHT22;13899;51.174;4.456;2023-07-24T04:49:24;17.20;99.90
25918;DHT22;13899;51.174;4.456;2023-07-24T04:51:50;17.10;99.90
25918;DHT22;13899;51.174;4.456;2023-07-24T04:54:16;17.10;99.90
25918;DHT22;13899;51.174;4.456;2023-07-24T04:56:42;17.10;99.90
25918;DHT22;13899;51.174;4.456;2023-07-24T04:59:07;17.10;99.90
25918;DHT22;13899;51.174;4.456;2023-07-24T05:01:33;17.30;99.90
25918;DHT22;13899;51.174;4.456;2023-07-24T05:03:58;17.60;99.90
25918;DHT22;13899;51.174;4.456;2023-07-24T05:06:24;17.50;99.90
25918;DHT22;13899;51.174;4.456;2023-07-24T05:08:50;17.20;99.90
25918;DHT22;13899;51.174;4.456;2023-07-24T05:11:15;17.10;99.90
25918;DHT22;13899;51.174;4.456;2023-07-24T05:13:41;17.10;99.90
25918;DHT22;13899;51.174;4.456;2023-07-24T05:16:06;17.30;99.90
25918;DHT22;13899;51.174;4.456;2023-07-24T05:18:32;17.20;99.90
25918;DHT22;13899;51.174;4.456;2023-07-24T05:20:58;17.40;99.90
25918;DHT22;13899;51.174;4.456;2023-07-24T05:23:23;17.40;99.90
25918;DHT22;13899;51.174;4.456;2023-07-24T05:25:59;17.10;99.90
25918;DHT22;13899;51.174;4.456;2023-07-24T05:28:29;17.00;99.90
25918;DHT22;13899;51.174;4.456;2023-07-24T05:30:55;16.90;99.90
25918;DHT22;13899;51.174;4.456;2023-07-24T05:33:21;17.10;99.90
25918;DHT22;13899;51.174;4.456;2023-07-24T05:35:48;17.10;99.90
25918;DHT22;13899;51.174;4.456;2023-07-24T05:38:13;17.10;99.90
25918;DHT22;13899;51.174;4.456;2023-07-24T05:40:39;17.10;99.90
25918;DHT22;13899;51.174;4.456;2023-07-24T05:43:04;17.30;99.90
25918;DHT22;13899;51.174;4.456;2023-07-24T05:45:30;17.20;99.90
25918;DHT22;13899;51.174;4.456;2023-07-24T05:47:55;17.30;99.90
25918;DHT22;13899;51.174;4.456;2023-07-24T05:50:21;17.10;99.90
25918;DHT22;13899;51.174;4.456;2023-07-24T05:52:47;17.60;99.90
25918;DHT22;13899;51.174;4.456;2023-07-24T05:55:12;17.60;99.90
25918;DHT22;13899;51.174;4.456;2023-07-24T05:57:38;17.70;99.90
25918;DHT22;13899;51.174;4.456;2023-07-24T06:00:04;17.20;99.90
25918;DHT22;13899;51.174;4.456;2023-07-24T06:02:30;17.10;99.90
25918;DHT22;13899;51.174;4.456;2023-07-24T06:04:56;17.20;99.90
25918;DHT22;13899;51.174;4.456;2023-07-24T06:07:21;17.50;99.90
25918;DHT22;13899;51.174;4.456;2023-07-24T06:09:47;17.50;99.90
25918;DHT22;13899;51.174;4.456;2023-07-24T06:12:13;17.60;99.90
25918;DHT22;13899;51.174;4.456;2023-07-24T06:14:39;17.70;99.90
25918;DHT22;13899;51.174;4.456;2023-07-24T06:17:05;17.50;99.90
25918;DHT22;13899;51.174;4.456;2023-07-24T06:19:30;17.60;99.90
25918;DHT22;13899;51.174;4.456;2023-07-24T06:21:56;17.40;99.90
25918;DHT22;13899;51.174;4.456;2023-07-24T06:24:22;17.40;99.90
25918;DHT22;13899;51.174;4.456;2023-07-24T06:26:49;17.40;99.90
25918;DHT22;13899;51.174;4.456;2023-07-24T06:29:14;17.90;99.90
25918;DHT22;13899;51.174;4.456;2023-07-24T06:31:40;17.90;99.90
25918;DHT22;13899;51.174;4.456;2023-07-24T06:34:05;18.10;99.90
25918;DHT22;13899;51.174;4.456;2023-07-24T06:36:31;18.20;99.90
25918;DHT22;13899;51.174;4.456;2023-07-24T06:38:56;18.10;99.90
25918;DHT22;13899;51.174;4.456;2023-07-24T06:41:22;18.00;99.90
25918;DHT22;13899;51.174;4.456;2023-07-24T06:43:49;17.80;99.90
25918;DHT22;13899;51.174;4.456;2023-07-24T06:46:15;17.80;99.90
25918;DHT22;13899;51.174;4.456;2023-07-24T06:48:40;18.20;99.90
25918;DHT22;13899;51.174;4.456;2023-07-24T06:51:06;18.70;99.90
25918;DHT22;13899;51.174;4.456;2023-07-24T06:53:31;18.50;99.90
25918;DHT22;13899;51.174;4.456;2023-07-24T06:55:57;18.60;99.90
25918;DHT22;13899;51.174;4.456;2023-07-24T06:58:22;18.70;99.90
25918;DHT22;13899;51.174;4.456;2023-07-24T07:00:48;18.50;99.90
25918;DHT22;13899;51.174;4.456;2023-07-24T07:03:13;18.70;99.90
25918;DHT22;13899;51.174;4.456;2023-07-24T07:05:39;18.80;99.90
25918;DHT22;13899;51.174;4.456;2023-07-24T07:08:05;18.60;99.90
25918;DHT22;13899;51.174;4.456;2023-07-24T07:10:31;18.50;99.90
25918;DHT22;13899;51.174;4.456;2023-07-24T07:12:56;18.60;99.90
25918;DHT22;13899;51.174;4.456;2023-07-24T07:15:22;18.70;99.90
25918;DHT22;13899;51.174;4.456;2023-07-24T07:17:48;18.50;99.90
25918;DHT22;13899;51.174;4.456;2023-07-24T07:20:13;18.30;99.90
25918;DHT22;13899;51.174;4.456;2023-07-24T07:22:39;18.10;99.90
25918;DHT22;13899;51.174;4.456;2023-07-24T07:25:04;18.30;99.90
25918;DHT22;13899;51.174;4.456;2023-07-24T07:27:30;18.40;99.90
25918;DHT22;13899;51.174;4.456;2023-07-24T07:29:56;18.40;99.90
25918;DHT22;13899;51.174;4.456;2023-07-24T07:32:21;18.70;99.90
25918;DHT22;13899;51.174;4.456;2023-07-24T07:34:47;18.70;99.90
25918;DHT22;13899;51.174;4.456;2023-07-24T07:37:12;18.60;99.90
25918;DHT22;13899;51.174;4.456;2023-07-24T07:39:38;18.60;99.90
25918;DHT22;13899;51.174;4.456;2023-07-24T07:42:04;18.50;99.90
25918;DHT22;13899;51.174;4.456;2023-07-24T07:44:29;18.50;99.90
25918;DHT22;13899;51.174;4.456;2023-07-24T07:46:55;18.70;99.90
25918;DHT22;13899;51.174;4.456;2023-07-24T07:49:20;18.80;99.90
25918;DHT22;13899;51.174;4.456;2023-07-24T07:51:46;18.80;99.90
25918;DHT22;13899;51.174;4.456;2023-07-24T07:54:12;18.90;99.90
25918;DHT22;13899;51.174;4.456;2023-07-24T07:56:37;18.90;99.90
25918;DHT22;13899;51.174;4.456;2023-07-24T07:59:03;19.40;99.90
25918;DHT22;13899;51.174;4.456;2023-07-24T08:01:28;19.40;99.90
25918;DHT22;13899;51.174;4.456;2023-07-24T08:03:54;19.30;99.90
25918;DHT22;13899;51.174;4.456;2023-07-24T08:06:20;19.40;99.90
25918;DHT22;13899;51.174;4.456;2023-07-24T08:08:47;19.90;99.90
25918;DHT22;13899;51.174;4.456;2023-07-24T08:11:12;20.00;99.90
25918;DHT22;13899;51.174;4.456;2023-07-24T08:13:38;20.20;99.90
25918;DHT22;13899;51.174;4.456;2023-07-24T08:16:04;20.90;99.90
25918;DHT22;13899;51.174;4.456;2023-07-24T08:18:30;21.30;99.90
25918;DHT22;13899;51.174;4.456;2023-07-24T08:20:56;20.90;99.90
25918;DHT22;13899;51.174;4.456;2023-07-24T08:23:21;21.10;99.90
25918;DHT22;13899;51.174;4.456;2023-07-24T08:25:56;20.70;99.90
25918;DHT22;13899;51.174;4.456;2023-07-24T08:28:22;20.90;99.90
25918;DHT22;13899;51.174;4.456;2023-07-24T08:30:56;20.90;99.90
25918;DHT22;13899;51.174;4.456;2023-07-24T08:33:23;20.20;99.90
25918;DHT22;13899;51.174;4.456;2023-07-24T08:36:00;20.20;99.90
25918;DHT22;13899;51.174;4.456;2023-07-24T08:38:26;20.30;99.90
25918;DHT22;13899;51.174;4.456;2023-07-24T08:41:12;20.70;99.90
25918;DHT22;13899;51.174;4.456;2023-07-24T08:43:39;20.80;99.90
25918;DHT22;13899;51.174;4.456;2023-07-24T08:46:06;20.70;99.90
25918;DHT22;13899;51.174;4.456;2023-07-24T08:48:33;20.70;99.90
25918;DHT22;13899;51.174;4.456;2023-07-24T08:51:05;20.70;99.90
25918;DHT22;13899;51.174;4.456;2023-07-24T08:53:35;20.50;99.90
25918;DHT22;13899;51.174;4.456;2023-07-24T08:56:03;20.70;99.90
25918;DHT22;13899;51.174;4.456;2023-07-24T08:58:28;21.20;99.90
25918;DHT22;13899;51.174;4.456;2023-07-24T09:00:56;21.70;99.90
25918;DHT22;13899;51.174;4.456;2023-07-24T09:03:22;22.20;99.90
25918;DHT22;13899;51.174;4.456;2023-07-24T09:05:47;22.50;99.90
25918;DHT22;13899;51.174;4.456;2023-07-24T09:08:13;22.60;99.90
25918;DHT22;13899;51.174;4.456;2023-07-24T09:10:39;22.00;99.90
25918;DHT22;13899;51.174;4.456;2023-07-24T09:13:05;22.00;99.90
25918;DHT22;13899;51.174;4.456;2023-07-24T09:15:41;22.40;99.90
25918;DHT22;13899;51.174;4.456;2023-07-24T09:18:07;22.70;99.90
25918;DHT22;13899;51.174;4.456;2023-07-24T09:20:43;22.70;99.90
25918;DHT22;13899;51.174;4.456;2023-07-24T09:23:10;21.50;99.90
25918;DHT22;13899;51.174;4.456;2023-07-24T09:25:37;21.60;99.90
25918;DHT22;13899;51.174;4.456;2023-07-24T09:28:15;22.00;99.90
25918;DHT22;13899;51.174;4.456;2023-07-24T09:30:41;22.50;99.90
25918;DHT22;13899;51.174;4.456;2023-07-24T09:33:07;22.20;99.90
25918;DHT22;13899;51.174;4.456;2023-07-24T09:35:33;21.80;99.90
25918;DHT22;13899;51.174;4.456;2023-07-24T09:38:04;21.70;99.90
25918;DHT22;13899;51.174;4.456;2023-07-24T09:40:38;22.00;99.90
25918;DHT22;13899;51.174;4.456;2023-07-24T09:43:18;21.60;99.90
25918;DHT22;13899;51.174;4.456;2023-07-24T09:45:44;21.60;99.90
25918;DHT22;13899;51.174;4.456;2023-07-24T09:48:14;22.10;99.90
25918;DHT22;13899;51.174;4.456;2023-07-24T09:50:42;22.20;99.90
25918;DHT22;13899;51.174;4.456;2023-07-24T09:55:57;22.20;99.90
25918;DHT22;13899;51.174;4.456;2023-07-24T09:58:23;22.70;99.90
25918;DHT22;13899;51.174;4.456;2023-07-24T10:00:50;22.90;99.90
25918;DHT22;13899;51.174;4.456;2023-07-24T10:03:16;23.00;99.90
25918;DHT22;13899;51.174;4.456;2023-07-24T10:05:46;24.30;99.90
25918;DHT22;13899;51.174;4.456;2023-07-24T10:08:14;24.40;99.90
25918;DHT22;13899;51.174;4.456;2023-07-24T10:10:40;26.00;99.90
25918;DHT22;13899;51.174;4.456;2023-07-24T10:13:06;25.20;99.90
25918;DHT22;13899;51.174;4.456;2023-07-24T10:15:33;24.70;99.90
25918;DHT22;13899;51.174;4.456;2023-07-24T10:18:04;23.90;99.90
25918;DHT22;13899;51.174;4.456;2023-07-24T10:20:39;23.00;99.90
25918;DHT22;13899;51.174;4.456;2023-07-24T10:23:06;22.10;99.90
25918;DHT22;13899;51.174;4.456;2023-07-24T10:25:35;21.70;99.90
25918;DHT22;13899;51.174;4.456;2023-07-24T10:28:06;21.70;99.90
25918;DHT22;13899;51.174;4.456;2023-07-24T10:30:37;21.50;99.90
25918;DHT22;13899;51.174;4.456;2023-07-24T10:33:11;21.40;99.90
25918;DHT22;13899;51.174;4.456;2023-07-24T10:35:45;21.00;99.90
25918;DHT22;13899;51.174;4.456;2023-07-24T10:38:13;21.30;99.90
25918;DHT22;13899;51.174;4.456;2023-07-24T10:40:40;21.20;99.90
25918;DHT22;13899;51.174;4.456;2023-07-24T10:43:08;21.50;99.90
25918;DHT22;13899;51.174;4.456;2023-07-24T10:45:51;21.60;99.90
25918;DHT22;13899;51.174;4.456;2023-07-24T10:48:18;21.90;99.90
25918;DHT22;13899;51.174;4.456;2023-07-24T10:50:45;21.50;99.90
25918;DHT22;13899;51.174;4.456;2023-07-24T10:53:13;21.60;99.90
25918;DHT22;13899;51.174;4.456;2023-07-24T10:55:39;20.80;99.90
25918;DHT22;13899;51.174;4.456;2023-07-24T10:58:05;20.80;99.90
25918;DHT22;13899;51.174;4.456;2023-07-24T11:00:31;20.90;99.90
25918;DHT22;13899;51.174;4.456;2023-07-24T11:02:57;20.70;99.90
25918;DHT22;13899;51.174;4.456;2023-07-24T11:05:23;20.40;99.90
25918;DHT22;13899;51.174;4.456;2023-07-24T11:07:49;20.20;99.90
25918;DHT22;13899;51.174;4.456;2023-07-24T11:10:20;20.70;99.90
25918;DHT22;13899;51.174;4.456;2023-07-24T11:12:46;21.20;99.90
25918;DHT22;13899;51.174;4.456;2023-07-24T11:15:13;22.10;99.90
25918;DHT22;13899;51.174;4.456;2023-07-24T11:17:40;22.70;99.90
25918;DHT22;13899;51.174;4.456;2023-07-24T11:20:10;21.50;99.90
25918;DHT22;13899;51.174;4.456;2023-07-24T11:22:38;21.10;99.90
25918;DHT22;13899;51.174;4.456;2023-07-24T11:25:04;20.90;99.90
25918;DHT22;13899;51.174;4.456;2023-07-24T11:27:32;20.90;99.90
25918;DHT22;13899;51.174;4.456;2023-07-24T11:29:57;21.00;99.90
25918;DHT22;13899;51.174;4.456;2023-07-24T11:32:23;21.20;99.90
25918;DHT22;13899;51.174;4.456;2023-07-24T11:34:49;22.20;99.90
25918;DHT22;13899;51.174;4.456;2023-07-24T11:37:16;21.60;99.90
25918;DHT22;13899;51.174;4.456;2023-07-24T11:39:43;21.70;99.90
25918;DHT22;13899;51.174;4.456;2023-07-24T11:42:09;21.50;99.90
25918;DHT22;13899;51.174;4.456;2023-07-24T11:44:34;21.30;99.90
25918;DHT22;13899;51.174;4.456;2023-07-24T11:47:04;21.80;99.90
25918;DHT22;13899;51.174;4.456;2023-07-24T11:49:31;22.40;99.90
25918;DHT22;13899;51.174;4.456;2023-07-24T11:52:01;23.80;99.90
25918;DHT22;13899;51.174;4.456;2023-07-24T11:54:28;24.20;99.90
25918;DHT22;13899;51.174;4.456;2023-07-24T11:56:53;24.60;99.90
25918;DHT22;13899;51.174;4.456;2023-07-24T11:59:19;24.90;99.90
25918;DHT22;13899;51.174;4.456;2023-07-24T12:01:48;25.50;99.90
25918;DHT22;13899;51.174;4.456;2023-07-24T12:04:15;25.50;99.90
25918;DHT22;13899;51.174;4.456;2023-07-24T12:06:40;24.60;99.90
25918;DHT22;13899;51.174;4.456;2023-07-24T12:09:06;25.00;99.90
25918;DHT22;13899;51.174;4.456;2023-07-24T12:11:33;24.60;99.90
25918;DHT22;13899;51.174;4.456;2023-07-24T12:13:58;23.80;99.90
25918;DHT22;13899;51.174;4.456;2023-07-24T12:16:24;23.70;99.90
25918;DHT22;13899;51.174;4.456;2023-07-24T12:18:50;23.50;99.90
25918;DHT22;13899;51.174;4.456;2023-07-24T12:21:16;23.90;99.90
25918;DHT22;13899;51.174;4.456;2023-07-24T12:23:41;23.90;99.90
25918;DHT22;13899;51.174;4.456;2023-07-24T12:26:07;23.00;99.90
25918;DHT22;13899;51.174;4.456;2023-07-24T12:28:33;22.80;99.90
25918;DHT22;13899;51.174;4.456;2023-07-24T12:30:59;22.50;99.90
25918;DHT22;13899;51.174;4.456;2023-07-24T12:33:24;22.60;99.90
25918;DHT22;13899;51.174;4.456;2023-07-24T12:35:50;22.20;99.90
25918;DHT22;13899;51.174;4.456;2023-07-24T12:38:16;21.80;99.90
25918;DHT22;13899;51.174;4.456;2023-07-24T12:40:42;21.60;99.90
25918;DHT22;13899;51.174;4.456;2023-07-24T12:43:07;22.00;99.90
25918;DHT22;13899;51.174;4.456;2023-07-24T12:45:33;21.90;99.90
25918;DHT22;13899;51.174;4.456;2023-07-24T12:47:59;21.90;99.90
25918;DHT22;13899;51.174;4.456;2023-07-24T12:50:25;22.10;99.90
25918;DHT22;13899;51.174;4.456;2023-07-24T12:52:51;22.70;99.90
25918;DHT22;13899;51.174;4.456;2023-07-24T12:55:16;22.80;99.90
25918;DHT22;13899;51.174;4.456;2023-07-24T12:57:42;22.90;99.90
25918;DHT22;13899;51.174;4.456;2023-07-24T13:00:08;23.90;99.90
25918;DHT22;13899;51.174;4.456;2023-07-24T13:02:34;26.00;99.90
25918;DHT22;13899;51.174;4.456;2023-07-24T13:05:00;27.90;99.90
25918;DHT22;13899;51.174;4.456;2023-07-24T13:07:26;29.00;99.90
25918;DHT22;13899;51.174;4.456;2023-07-24T13:09:51;29.70;99.90
25918;DHT22;13899;51.174;4.456;2023-07-24T13:12:17;29.70;99.90
25918;DHT22;13899;51.174;4.456;2023-07-24T13:14:42;29.00;99.90
25918;DHT22;13899;51.174;4.456;2023-07-24T13:17:09;27.60;99.90
25918;DHT22;13899;51.174;4.456;2023-07-24T13:19:35;26.70;99.90
25918;DHT22;13899;51.174;4.456;2023-07-24T13:22:00;25.40;99.90
25918;DHT22;13899;51.174;4.456;2023-07-24T13:24:26;24.40;99.90
25918;DHT22;13899;51.174;4.456;2023-07-24T13:26:51;24.10;99.90
25918;DHT22;13899;51.174;4.456;2023-07-24T13:29:17;23.50;99.90
25918;DHT22;13899;51.174;4.456;2023-07-24T13:31:42;23.30;99.90
25918;DHT22;13899;51.174;4.456;2023-07-24T13:34:08;23.20;99.90
25918;DHT22;13899;51.174;4.456;2023-07-24T13:36:34;22.90;99.90
25918;DHT22;13899;51.174;4.456;2023-07-24T13:38:59;22.90;99.90
25918;DHT22;13899;51.174;4.456;2023-07-24T13:41:25;22.70;99.90
25918;DHT22;13899;51.174;4.456;2023-07-24T13:43:50;22.60;99.90
25918;DHT22;13899;51.174;4.456;2023-07-24T13:46:16;22.00;99.90
25918;DHT22;13899;51.174;4.456;2023-07-24T13:48:41;21.90;99.90
25918;DHT22;13899;51.174;4.456;2023-07-24T13:51:07;21.70;99.90
25918;DHT22;13899;51.174;4.456;2023-07-24T13:53:33;21.30;99.90
25918;DHT22;13899;51.174;4.456;2023-07-24T13:55:58;21.30;99.90
25918;DHT22;13899;51.174;4.456;2023-07-24T13:58:24;21.20;99.90
25918;DHT22;13899;51.174;4.456;2023-07-24T14:00:50;20.50;99.90
25918;DHT22;13899;51.174;4.456;2023-07-24T14:03:15;20.90;99.90
25918;DHT22;13899;51.174;4.456;2023-07-24T14:05:41;21.40;99.90
25918;DHT22;13899;51.174;4.456;2023-07-24T14:08:07;21.60;99.90
25918;DHT22;13899;51.174;4.456;2023-07-24T14:10:33;21.70;99.90
25918;DHT22;13899;51.174;4.456;2023-07-24T14:12:58;21.50;99.90
25918;DHT22;13899;51.174;4.456;2023-07-24T14:15:24;21.30;99.90
25918;DHT22;13899;51.174;4.456;2023-07-24T14:17:50;21.30;99.90
25918;DHT22;13899;51.174;4.456;2023-07-24T14:20:15;21.30;99.90
25918;DHT22;13899;51.174;4.456;2023-07-24T14:22:41;21.30;99.90
25918;DHT22;13899;51.174;4.456;2023-07-24T14:25:07;21.00;99.90
25918;DHT22;13899;51.174;4.456;2023-07-24T14:27:33;21.20;99.90
25918;DHT22;13899;51.174;4.456;2023-07-24T14:29:58;21.30;99.90
25918;DHT22;13899;51.174;4.456;2023-07-24T14:32:24;21.50;99.90
25918;DHT22;13899;51.174;4.456;2023-07-24T14:34:51;21.60;99.90
25918;DHT22;13899;51.174;4.456;2023-07-24T14:37:19;21.40;99.90
25918;DHT22;13899;51.174;4.456;2023-07-24T14:39:44;21.30;99.90
25918;DHT22;13899;51.174;4.456;2023-07-24T14:42:13;21.10;99.90
25918;DHT22;13899;51.174;4.456;2023-07-24T14:44:39;20.80;99.90
25918;DHT22;13899;51.174;4.456;2023-07-24T14:47:04;20.30;99.90
25918;DHT22;13899;51.174;4.456;2023-07-24T14:49:30;20.40;99.90
25918;DHT22;13899;51.174;4.456;2023-07-24T14:51:56;20.40;99.90
25918;DHT22;13899;51.174;4.456;2023-07-24T14:54:22;20.90;99.90
25918;DHT22;13899;51.174;4.456;2023-07-24T14:56:47;21.10;99.90
25918;DHT22;13899;51.174;4.456;2023-07-24T14:59:13;20.60;99.90
25918;DHT22;13899;51.174;4.456;2023-07-24T15:01:38;20.60;99.90
25918;DHT22;13899;51.174;4.456;2023-07-24T15:04:04;20.30;99.90
25918;DHT22;13899;51.174;4.456;2023-07-24T15:06:30;20.70;99.90
25918;DHT22;13899;51.174;4.456;2023-07-24T15:08:57;21.30;99.90
25918;DHT22;13899;51.174;4.456;2023-07-24T15:11:22;21.60;99.90
25918;DHT22;13899;51.174;4.456;2023-07-24T15:13:49;22.00;99.90
25918;DHT22;13899;51.174;4.456;2023-07-24T15:16:14;21.50;99.90
25918;DHT22;13899;51.174;4.456;2023-07-24T15:18:40;21.90;99.90
25918;DHT22;13899;51.174;4.456;2023-07-24T15:21:06;21.60;99.90
25918;DHT22;13899;51.174;4.456;2023-07-24T15:23:31;21.70;99.90
25918;DHT22;13899;51.174;4.456;2023-07-24T15:25:58;21.60;99.90
25918;DHT22;13899;51.174;4.456;2023-07-24T15:28:24;21.50;99.90
25918;DHT22;13899;51.174;4.456;2023-07-24T15:30:50;21.50;99.90
25918;DHT22;13899;51.174;4.456;2023-07-24T15:33:16;21.50;99.90
25918;DHT22;13899;51.174;4.456;2023-07-24T15:35:42;21.40;99.90